Time;durP1;ratioP1;P1;durP2;ratioP2;P2;SDS_P1;SDS_P2;PMS_P1;PMS_P2;Temp;Humidity;BMP_temperature;BMP_pressure;BME280_temperature;BME280_humidity;BME280_pressure;Samples;Min_cycle;Max_cycle;Signal;HPM_P1;HPM_P2
2023/04/22 00:01:40;;;;;;;9.77;6.60;;;12.50;77.40;;;;;;5039373;28;20079;-69
2023/04/22 00:04:07;;;;;;;9.77;6.15;;;12.50;77.30;;;;;;5025651;28;20036;-69
2023/04/22 00:06:34;;;;;;;10.85;6.82;;;12.50;77.30;;;;;;5028847;28;20064;-69
2023/04/22 00:09:00;;;;;;;12.00;7.00;;;12.40;77.30;;;;;;5041887;28;20021;-69
2023/04/22 00:11:26;;;;;;;10.02;6.47;;;12.40;77.30;;;;;;5041890;28;20064;-69
2023/04/22 00:13:52;;;;;;;9.43;6.10;;;12.40;77.30;;;;;;5037645;28;20032;-69
2023/04/22 00:16:18;;;;;;;11.05;6.65;;;12.40;77.20;;;;;;5038719;28;20075;-69
2023/04/22 00:18:43;;;;;;;10.15;6.40;;;12.40;77.20;;;;;;5041428;28;20421;-69
2023/04/22 00:21:09;;;;;;;10.48;6.53;;;12.40;77.20;;;;;;5044791;28;20045;-69
2023/04/22 00:23:35;;;;;;;9.88;5.55;;;12.30;77.10;;;;;;5033438;28;20040;-69
2023/04/22 00:26:01;;;;;;;8.93;5.50;;;12.30;77.00;;;;;;5032290;28;20125;-69
2023/04/22 00:28:27;;;;;;;9.40;5.95;;;12.30;77.00;;;;;;5040678;28;20029;-69
2023/04/22 00:30:53;;;;;;;9.60;5.65;;;12.30;77.10;;;;;;5057757;28;20020;-69
2023/04/22 00:33:18;;;;;;;10.00;5.45;;;12.20;77.10;;;;;;5038391;28;20328;-69
2023/04/22 00:35:45;;;;;;;9.07;5.68;;;12.20;77.10;;;;;;5048431;28;20032;-69
2023/04/22 00:38:11;;;;;;;9.27;5.70;;;12.20;77.20;;;;;;5033679;28;20068;-69
2023/04/22 00:40:37;;;;;;;9.07;5.78;;;12.10;77.10;;;;;;5035115;28;20053;-69
2023/04/22 00:43:03;;;;;;;8.93;5.20;;;12.10;77.20;;;;;;5041714;28;20492;-69
2023/04/22 00:45:30;;;;;;;9.88;5.63;;;12.10;77.20;;;;;;5048068;28;20087;-67
2023/04/22 00:47:56;;;;;;;8.88;5.45;;;12.10;77.20;;;;;;5031558;28;20099;-67
2023/04/22 00:50:22;;;;;;;8.57;5.30;;;12.10;77.30;;;;;;5047246;28;20029;-67
2023/04/22 00:52:48;;;;;;;8.48;5.05;;;12.10;77.30;;;;;;5040939;28;20037;-67
2023/04/22 00:55:14;;;;;;;9.63;5.43;;;12.10;77.30;;;;;;5042259;28;20060;-67
2023/04/22 00:57:41;;;;;;;9.98;5.85;;;12.10;77.30;;;;;;5041136;28;20030;-67
2023/04/22 01:00:10;;;;;;;8.80;5.43;;;12.10;77.30;;;;;;5047484;28;20017;-67
2023/04/22 01:02:38;;;;;;;8.15;4.85;;;12.00;77.10;;;;;;5042891;28;20021;-67
2023/04/22 01:05:08;;;;;;;12.20;5.50;;;12.00;77.10;;;;;;5024237;28;20021;-67
2023/04/22 01:07:35;;;;;;;8.65;5.07;;;12.00;77.10;;;;;;5043933;28;20029;-67
2023/04/22 01:10:02;;;;;;;8.80;5.90;;;12.00;77.20;;;;;;5024963;28;20174;-67
2023/04/22 01:12:28;;;;;;;9.88;5.55;;;12.00;77.20;;;;;;5039740;28;20022;-67
2023/04/22 01:14:54;;;;;;;8.68;4.93;;;11.90;77.10;;;;;;5042697;28;20055;-67
2023/04/22 01:17:20;;;;;;;8.57;5.18;;;12.00;77.10;;;;;;5041711;28;20025;-67
2023/04/22 01:19:47;;;;;;;9.35;5.80;;;11.90;77.00;;;;;;5047958;28;20132;-67
2023/04/22 01:22:14;;;;;;;7.93;4.85;;;12.00;77.10;;;;;;5047923;28;20037;-67
2023/04/22 01:24:40;;;;;;;9.05;5.63;;;11.90;77.10;;;;;;5040587;28;20072;-67
2023/04/22 01:27:06;;;;;;;8.88;5.22;;;11.90;77.10;;;;;;5035039;28;20064;-67
2023/04/22 01:29:32;;;;;;;9.63;5.35;;;11.90;77.10;;;;;;5047089;28;20047;-67
2023/04/22 01:32:00;;;;;;;8.07;5.28;;;11.90;77.20;;;;;;5036034;28;20419;-67
2023/04/22 01:34:29;;;;;;;8.40;5.28;;;11.80;77.20;;;;;;5024018;28;20111;-67
2023/04/22 01:36:55;;;;;;;11.23;6.60;;;11.80;77.10;;;;;;5047194;28;20095;-67
2023/04/22 01:39:21;;;;;;;9.35;6.30;;;11.80;77.10;;;;;;5038219;28;20020;-67
2023/04/22 01:41:47;;;;;;;9.23;5.75;;;11.80;77.30;;;;;;5053423;28;20102;-67
2023/04/22 01:44:13;;;;;;;8.85;6.45;;;11.70;77.20;;;;;;5034891;28;20041;-67
2023/04/22 01:46:39;;;;;;;9.85;6.60;;;11.70;77.20;;;;;;5043346;28;20068;-67
2023/04/22 01:49:05;;;;;;;9.93;6.13;;;11.70;77.20;;;;;;5038655;28;20025;-67
2023/04/22 01:51:31;;;;;;;10.27;6.50;;;11.70;77.20;;;;;;5055925;28;20044;-67
2023/04/22 01:53:57;;;;;;;10.68;7.05;;;11.70;77.10;;;;;;5040429;28;20049;-67
2023/04/22 01:56:23;;;;;;;9.57;6.38;;;11.70;77.30;;;;;;5035341;28;20032;-67
2023/04/22 01:58:49;;;;;;;9.90;6.50;;;11.60;77.30;;;;;;5045475;28;20099;-67
2023/04/22 02:01:14;;;;;;;9.25;6.13;;;11.70;78.00;;;;;;5035917;28;20408;-67
2023/04/22 02:03:40;;;;;;;9.20;6.05;;;11.60;77.20;;;;;;5043070;28;20171;-67
2023/04/22 02:06:06;;;;;;;10.93;6.57;;;11.60;77.30;;;;;;5042434;28;20026;-67
2023/04/22 02:08:33;;;;;;;9.93;6.03;;;11.60;77.30;;;;;;5041094;28;20022;-67
2023/04/22 02:10:59;;;;;;;9.63;6.53;;;11.60;77.30;;;;;;5054413;28;20016;-67
2023/04/22 02:13:26;;;;;;;11.65;6.28;;;11.60;77.30;;;;;;5047908;28;20053;-67
2023/04/22 02:15:52;;;;;;;9.00;6.05;;;11.60;77.30;;;;;;5014823;28;20079;-67
2023/04/22 02:18:18;;;;;;;9.75;6.45;;;11.50;77.30;;;;;;5023729;28;20450;-67
2023/04/22 02:20:44;;;;;;;9.55;6.15;;;11.60;77.30;;;;;;5038557;28;20060;-67
2023/04/22 02:23:10;;;;;;;10.40;6.45;;;11.50;77.40;;;;;;5048040;28;20059;-67
2023/04/22 02:25:37;;;;;;;9.82;6.85;;;11.50;77.40;;;;;;5034866;28;20037;-67
2023/04/22 02:28:03;;;;;;;10.20;6.38;;;11.60;77.50;;;;;;5043135;28;20029;-67
2023/04/22 02:30:29;;;;;;;9.98;6.40;;;11.50;77.40;;;;;;5051967;28;20370;-67
2023/04/22 02:32:55;;;;;;;9.57;5.97;;;11.50;77.40;;;;;;5052624;28;20089;-67
2023/04/22 02:35:21;;;;;;;9.73;6.85;;;11.50;77.40;;;;;;5038885;28;20044;-67
2023/04/22 02:37:49;;;;;;;10.93;7.30;;;11.50;77.50;;;;;;5019790;28;20520;-67
2023/04/22 02:40:15;;;;;;;11.23;7.10;;;11.50;77.50;;;;;;5016945;28;20033;-67
2023/04/22 02:42:41;;;;;;;11.65;6.90;;;11.50;77.50;;;;;;5047784;28;20047;-67
2023/04/22 02:45:07;;;;;;;9.98;7.20;;;11.50;77.50;;;;;;5036781;28;20025;-67
2023/04/22 02:47:34;;;;;;;10.95;7.07;;;11.50;77.50;;;;;;5032646;28;20386;-67
2023/04/22 02:50:00;;;;;;;10.48;6.75;;;11.50;77.60;;;;;;5030071;28;20026;-67
2023/04/22 02:52:26;;;;;;;11.50;7.93;;;11.60;77.70;;;;;;5031579;28;20056;-67
2023/04/22 02:54:52;;;;;;;11.73;7.68;;;11.60;77.80;;;;;;5029568;28;20048;-67
2023/04/22 02:57:18;;;;;;;11.43;8.00;;;11.60;77.80;;;;;;5012924;28;20068;-67
2023/04/22 02:59:45;;;;;;;13.00;8.52;;;11.60;77.80;;;;;;5028959;28;20470;-67
2023/04/22 03:02:13;;;;;;;10.82;7.47;;;11.60;77.90;;;;;;5026072;28;20047;-67
2023/04/22 03:04:53;;;;;;;11.95;7.63;;;11.60;77.90;;;;;;5032059;28;20422;-67
2023/04/22 03:07:19;;;;;;;12.10;7.88;;;11.60;77.90;;;;;;5029999;28;20096;-67
2023/04/22 03:09:45;;;;;;;10.80;7.88;;;11.60;77.90;;;;;;5018123;28;20017;-67
2023/04/22 03:12:10;;;;;;;10.98;8.05;;;11.70;78.00;;;;;;5017866;28;20176;-67
2023/04/22 03:14:36;;;;;;;13.00;8.10;;;11.60;77.90;;;;;;5022930;28;20033;-67
2023/04/22 03:17:02;;;;;;;14.05;8.77;;;11.60;78.00;;;;;;5016746;28;20026;-67
2023/04/22 03:19:28;;;;;;;12.18;8.32;;;11.60;78.00;;;;;;5017218;28;20151;-67
2023/04/22 03:21:55;;;;;;;12.88;8.95;;;11.60;78.10;;;;;;5018172;28;20034;-67
2023/04/22 03:24:21;;;;;;;10.57;7.68;;;11.60;78.10;;;;;;5003603;28;20394;-67
2023/04/22 03:26:50;;;;;;;11.57;8.05;;;11.60;78.20;;;;;;5021133;28;20040;-67
2023/04/22 03:29:16;;;;;;;12.30;8.50;;;11.60;78.20;;;;;;4997869;28;20026;-67
2023/04/22 03:31:42;;;;;;;11.52;8.30;;;11.60;78.20;;;;;;5021659;28;20096;-67
2023/04/22 03:34:08;;;;;;;13.00;8.73;;;11.60;78.30;;;;;;5001737;28;20022;-67
2023/04/22 03:36:34;;;;;;;11.60;8.55;;;11.60;78.20;;;;;;5030957;28;20028;-68
2023/04/22 03:39:00;;;;;;;12.45;8.68;;;11.60;78.30;;;;;;5027710;28;20443;-67
2023/04/22 03:41:27;;;;;;;12.32;8.65;;;11.60;78.30;;;;;;5017150;28;20022;-67
2023/04/22 03:43:53;;;;;;;12.15;8.77;;;11.60;78.40;;;;;;5007128;28;20038;-68
2023/04/22 03:46:19;;;;;;;12.50;9.13;;;11.60;78.40;;;;;;5024128;28;20109;-67
2023/04/22 03:48:56;;;;;;;13.60;9.25;;;11.60;78.40;;;;;;5006364;28;20022;-67
2023/04/22 03:51:28;;;;;;;12.27;9.07;;;11.60;78.40;;;;;;5016813;28;20029;-67
2023/04/22 03:53:54;;;;;;;12.35;8.80;;;11.60;78.40;;;;;;5024371;28;20096;-67
2023/04/22 03:56:23;;;;;;;13.43;10.13;;;11.60;78.50;;;;;;5022838;28;20017;-67
2023/04/22 03:58:49;;;;;;;15.57;10.02;;;11.60;78.50;;;;;;5027627;28;20030;-67
2023/04/22 04:01:15;;;;;;;12.80;9.80;;;11.60;78.50;;;;;;5019190;28;20029;-68
2023/04/22 04:03:45;;;;;;;13.23;9.65;;;11.60;78.50;;;;;;5018717;28;20493;-67
2023/04/22 04:06:12;;;;;;;13.40;9.63;;;11.60;78.50;;;;;;5017089;28;20025;-67
2023/04/22 04:08:38;;;;;;;14.55;10.30;;;11.60;78.50;;;;;;5024341;28;20091;-67
2023/04/22 04:11:04;;;;;;;12.68;9.27;;;11.60;78.50;;;;;;5012899;28;20022;-67
2023/04/22 04:13:31;;;;;;;14.82;10.57;;;11.60;78.50;;;;;;5031755;28;20026;-67
2023/04/22 04:16:20;;;;;;;14.30;9.90;;;11.60;78.60;;;;;;5034142;28;20033;-69
2023/04/22 04:18:51;;;;;;;15.75;10.50;;;11.60;78.60;;;;;;5014071;28;20132;-69
2023/04/22 04:21:18;;;;;;;14.63;11.20;;;11.60;78.70;;;;;;5031902;28;20454;-68
2023/04/22 04:23:48;;;;;;;17.10;11.73;;;11.60;78.70;;;;;;5032562;28;20135;-68
2023/04/22 04:26:15;;;;;;;16.13;10.98;;;11.60;78.70;;;;;;5023589;28;20034;-68
2023/04/22 04:28:46;;;;;;;16.08;12.68;;;11.70;78.70;;;;;;5016402;28;20018;-68
2023/04/22 04:31:13;;;;;;;16.85;11.70;;;11.60;78.80;;;;;;5021417;28;20053;-68
2023/04/22 04:33:39;;;;;;;18.67;12.68;;;11.70;78.80;;;;;;5040289;28;20391;-68
2023/04/22 04:36:07;;;;;;;16.52;12.10;;;11.70;78.80;;;;;;5033732;28;20061;-68
2023/04/22 04:38:34;;;;;;;16.17;12.38;;;11.70;78.80;;;;;;5029097;28;20343;-68
2023/04/22 04:41:00;;;;;;;17.00;11.32;;;11.70;78.80;;;;;;5021453;28;20029;-67
2023/04/22 04:43:28;;;;;;;15.65;12.10;;;11.70;78.80;;;;;;5018900;28;20103;-67
2023/04/22 04:46:07;;;;;;;17.30;12.50;;;11.70;78.70;;;;;;5002837;28;20331;-67
2023/04/22 04:48:35;;;;;;;17.00;12.73;;;11.70;78.70;;;;;;5032420;28;20177;-67
2023/04/22 04:51:06;;;;;;;15.95;12.23;;;11.70;78.70;;;;;;5034432;28;20025;-67
2023/04/22 04:53:36;;;;;;;17.38;12.57;;;11.70;78.70;;;;;;5017976;28;20112;-67
2023/04/22 04:56:01;;;;;;;18.75;13.27;;;11.70;78.70;;;;;;5028227;28;20124;-67
2023/04/22 04:58:28;;;;;;;16.80;13.18;;;11.70;78.80;;;;;;5024620;28;20022;-67
2023/04/22 05:01:17;;;;;;;16.15;12.57;;;11.70;78.80;;;;;;5032979;28;20029;-66
2023/04/22 05:03:45;;;;;;;18.63;13.35;;;11.70;78.90;;;;;;5014487;28;20025;-67
2023/04/22 05:06:13;;;;;;;16.90;12.30;;;11.70;78.90;;;;;;5029773;28;20022;-68
2023/04/22 05:08:42;;;;;;;19.30;12.50;;;11.70;78.90;;;;;;5039706;28;20021;-67
2023/04/22 05:11:09;;;;;;;16.70;12.88;;;11.70;78.90;;;;;;5031896;28;20026;-67
2023/04/22 05:13:35;;;;;;;17.02;12.65;;;11.80;79.00;;;;;;5018140;28;20037;-67
2023/04/22 05:16:02;;;;;;;16.77;12.85;;;11.80;79.10;;;;;;5016004;28;20340;-67
2023/04/22 05:18:28;;;;;;;15.55;11.35;;;11.80;79.10;;;;;;5035331;28;20037;-67
2023/04/22 05:21:03;;;;;;;18.40;13.45;;;11.80;79.10;;;;;;5033927;28;20104;-68
2023/04/22 05:23:29;;;;;;;17.92;13.00;;;11.80;79.10;;;;;;5034811;28;20104;-67
2023/04/22 05:25:57;;;;;;;16.95;13.43;;;11.80;79.10;;;;;;5033247;28;20033;-67
2023/04/22 05:28:23;;;;;;;18.23;12.90;;;11.80;79.10;;;;;;5035225;28;20021;-67
2023/04/22 05:30:53;;;;;;;18.48;13.43;;;11.80;79.10;;;;;;5034268;28;20018;-67
2023/04/22 05:33:18;;;;;;;18.05;13.38;;;11.80;79.10;;;;;;5039612;28;20525;-67
2023/04/22 05:35:44;;;;;;;18.42;12.45;;;11.80;79.00;;;;;;5030969;28;20079;-67
2023/04/22 05:38:10;;;;;;;17.33;13.50;;;11.90;79.10;;;;;;5049191;28;20358;-67
2023/04/22 05:40:39;;;;;;;17.60;12.88;;;11.90;79.10;;;;;;5032106;28;20083;-67
2023/04/22 05:43:06;;;;;;;17.90;13.65;;;11.90;79.10;;;;;;5049932;28;20044;-67
2023/04/22 05:45:32;;;;;;;17.33;13.18;;;11.90;79.20;;;;;;5050715;28;20107;-67
2023/04/22 05:47:58;;;;;;;18.15;13.68;;;11.90;79.20;;;;;;5035645;28;20422;-67
2023/04/22 05:50:28;;;;;;;18.25;13.68;;;11.90;79.20;;;;;;5007713;28;20469;-67
2023/04/22 05:53:01;;;;;;;17.88;13.75;;;12.00;79.20;;;;;;5032327;28;20025;-67
2023/04/22 05:55:27;;;;;;;17.98;13.82;;;12.00;79.10;;;;;;5048661;28;20319;-67
2023/04/22 05:57:53;;;;;;;19.40;13.93;;;12.00;79.20;;;;;;5026353;28;20025;-67
2023/04/22 06:00:42;;;;;;;19.27;13.88;;;12.00;79.20;;;;;;5019871;28;20041;-67
2023/04/22 06:03:20;;;;;;;18.23;13.63;;;12.00;79.20;;;;;;5047061;28;20025;-67
2023/04/22 06:05:45;;;;;;;18.95;14.10;;;12.10;79.30;;;;;;5037482;28;20025;-67
2023/04/22 06:08:11;;;;;;;17.55;13.75;;;12.10;79.30;;;;;;5020248;28;20028;-67
2023/04/22 06:10:37;;;;;;;19.58;14.13;;;12.20;79.30;;;;;;5029939;28;20014;-67
2023/04/22 06:13:03;;;;;;;148.50;23.35;;;12.20;79.20;;;;;;5022264;28;20477;-67
2023/04/22 06:15:29;;;;;;;38.35;15.93;;;12.30;79.30;;;;;;5030912;28;20166;-67
2023/04/22 06:17:55;;;;;;;19.90;14.10;;;12.30;79.20;;;;;;5010320;28;20056;-66
2023/04/22 06:20:21;;;;;;;19.73;15.10;;;12.40;79.10;;;;;;5033692;28;20073;-66
2023/04/22 06:22:47;;;;;;;19.65;14.77;;;12.40;79.10;;;;;;4998206;28;20137;-66
2023/04/22 06:25:12;;;;;;;18.83;14.38;;;12.50;79.00;;;;;;5020972;28;20033;-66
2023/04/22 06:27:38;;;;;;;18.90;14.80;;;12.50;79.00;;;;;;5021920;28;20029;-67
2023/04/22 06:30:05;;;;;;;19.52;15.00;;;12.60;79.00;;;;;;5019170;28;20048;-67
2023/04/22 06:32:31;;;;;;;20.88;14.63;;;12.60;78.90;;;;;;5033532;28;20028;-67
2023/04/22 06:34:57;;;;;;;19.73;15.35;;;12.70;78.90;;;;;;5031532;28;20116;-67
2023/04/22 06:37:25;;;;;;;21.35;15.27;;;12.80;78.90;;;;;;5016997;28;20049;-66
2023/04/22 06:39:51;;;;;;;19.55;14.30;;;12.90;78.80;;;;;;5000430;28;20104;-67
2023/04/22 06:42:52;;;;;;;17.10;13.90;;;13.00;78.70;;;;;;5019960;28;20378;-67
2023/04/22 06:45:39;;;;;;;18.88;14.40;;;13.10;78.50;;;;;;5023394;28;20366;-70
2023/04/22 06:48:26;;;;;;;19.25;14.77;;;13.20;78.50;;;;;;5032369;28;20021;-68
2023/04/22 06:51:14;;;;;;;19.92;14.35;;;13.60;78.20;;;;;;5019525;28;20088;-68
2023/04/22 06:53:40;;;;;;;19.13;14.68;;;14.10;77.40;;;;;;5031390;28;20131;-68
2023/04/22 06:56:06;;;;;;;18.42;14.25;;;14.50;76.60;;;;;;5032774;28;20036;-69
2023/04/22 06:58:32;;;;;;;17.45;13.38;;;14.90;75.90;;;;;;5033186;28;20040;-69
2023/04/22 07:00:58;;;;;;;19.60;14.30;;;15.20;75.20;;;;;;5034658;28;20053;-69
2023/04/22 07:03:24;;;;;;;18.35;14.35;;;15.60;74.60;;;;;;5033492;28;20099;-69
2023/04/22 07:05:59;;;;;;;17.02;12.60;;;15.80;74.00;;;;;;5017206;28;20022;-68
2023/04/22 07:08:25;;;;;;;16.35;12.00;;;16.10;73.60;;;;;;5034608;28;20025;-69
2023/04/22 07:10:51;;;;;;;17.23;12.77;;;16.30;73.00;;;;;;5032262;28;20036;-68
2023/04/22 07:13:32;;;;;;;17.77;12.20;;;16.50;72.50;;;;;;5025254;28;20030;-69
2023/04/22 07:15:59;;;;;;;16.48;12.13;;;16.70;72.00;;;;;;5030272;28;20395;-68
2023/04/22 07:18:25;;;;;;;15.20;12.07;;;16.90;71.40;;;;;;5033264;28;20032;-69
2023/04/22 07:20:51;;;;;;;15.65;11.23;;;17.10;71.00;;;;;;5031854;28;20042;-68
2023/04/22 07:23:18;;;;;;;15.25;11.18;;;17.30;70.50;;;;;;5034248;28;20029;-70
2023/04/22 07:25:44;;;;;;;15.50;11.20;;;17.40;70.10;;;;;;5032727;28;20105;-70
2023/04/22 07:28:10;;;;;;;13.40;10.30;;;17.50;69.60;;;;;;5031514;28;20137;-70
2023/04/22 07:30:36;;;;;;;15.70;10.45;;;17.70;69.10;;;;;;5028228;28;20367;-70
2023/04/22 07:33:01;;;;;;;15.35;10.70;;;17.80;68.50;;;;;;5034541;28;20378;-72
2023/04/22 07:35:28;;;;;;;12.40;9.05;;;18.00;68.00;;;;;;5044184;28;20037;-72
2023/04/22 07:37:54;;;;;;;13.70;10.13;;;18.20;67.70;;;;;;5050076;28;20021;-71
2023/04/22 07:40:20;;;;;;;14.10;9.70;;;18.30;67.20;;;;;;5047836;28;20116;-71
2023/04/22 07:42:46;;;;;;;13.15;9.63;;;18.50;66.80;;;;;;5054092;28;20411;-71
2023/04/22 07:45:12;;;;;;;14.50;9.65;;;18.60;66.40;;;;;;5053475;28;20016;-71
2023/04/22 07:47:38;;;;;;;12.52;9.27;;;18.80;66.20;;;;;;5053056;28;20044;-71
2023/04/22 07:50:04;;;;;;;13.27;9.13;;;18.90;65.70;;;;;;5043438;28;20022;-70
2023/04/22 07:52:30;;;;;;;13.68;9.73;;;19.00;65.30;;;;;;5045181;28;20025;-71
2023/04/22 07:54:56;;;;;;;11.88;8.50;;;19.00;65.00;;;;;;5036745;28;20335;-71
2023/04/22 07:57:22;;;;;;;13.82;9.60;;;19.10;64.50;;;;;;5034504;28;20033;-71
2023/04/22 07:59:50;;;;;;;11.82;8.32;;;19.20;64.30;;;;;;5024922;28;20431;-72
2023/04/22 08:02:16;;;;;;;12.20;8.40;;;19.20;64.80;;;;;;5037927;28;20033;-71
2023/04/22 08:04:42;;;;;;;11.32;8.40;;;19.20;64.10;;;;;;5053039;28;20059;-71
2023/04/22 08:07:08;;;;;;;10.75;7.25;;;19.30;63.90;;;;;;5052994;28;20104;-71
2023/04/22 08:09:34;;;;;;;11.55;8.32;;;19.40;64.50;;;;;;5054121;28;20462;-71
2023/04/22 08:12:00;;;;;;;10.90;7.82;;;19.50;63.60;;;;;;5035746;28;20025;-71
2023/04/22 08:14:25;;;;;;;10.98;8.02;;;19.50;63.30;;;;;;5039752;28;20036;-71
2023/04/22 08:16:51;;;;;;;13.60;8.25;;;19.60;63.10;;;;;;5054242;28;20028;-71
2023/04/22 08:19:19;;;;;;;11.70;8.32;;;19.70;62.60;;;;;;5054032;28;20117;-71
2023/04/22 08:21:47;;;;;;;11.13;7.97;;;19.70;62.20;;;;;;5023826;28;20052;-71
2023/04/22 08:24:13;;;;;;;11.75;8.02;;;19.60;62.20;;;;;;5033956;28;20033;-71
2023/04/22 08:26:39;;;;;;;11.55;7.95;;;19.40;62.40;;;;;;5054008;28;20037;-71
2023/04/22 08:29:05;;;;;;;11.23;8.15;;;19.40;62.60;;;;;;5053687;28;20434;-71
2023/04/22 08:31:33;;;;;;;10.57;7.72;;;19.40;62.50;;;;;;5047281;28;20109;-71
2023/04/22 08:33:59;;;;;;;11.13;8.18;;;19.40;62.40;;;;;;5030199;28;20021;-71
2023/04/22 08:36:26;;;;;;;11.63;8.10;;;19.40;62.20;;;;;;5052657;28;20041;-71
2023/04/22 08:38:53;;;;;;;10.90;7.38;;;19.40;62.20;;;;;;5036031;28;20279;-71
2023/04/22 08:41:23;;;;;;;11.70;7.38;;;19.30;62.30;;;;;;5052425;28;20354;-71
2023/04/22 08:43:51;;;;;;;10.98;7.43;;;19.30;62.40;;;;;;5028210;28;20093;-71
2023/04/22 08:46:20;;;;;;;11.07;7.78;;;19.20;62.30;;;;;;5056605;28;20028;-71
2023/04/22 08:48:50;;;;;;;11.73;7.90;;;19.40;62.10;;;;;;5057598;28;20116;-71
2023/04/22 08:51:16;;;;;;;12.32;7.47;;;19.50;61.90;;;;;;5056361;28;20029;-71
2023/04/22 08:53:43;;;;;;;10.52;6.28;;;19.60;61.80;;;;;;5043679;28;20029;-71
2023/04/22 08:56:11;;;;;;;10.23;7.22;;;19.60;61.70;;;;;;5056317;28;20057;-71
2023/04/22 08:58:41;;;;;;;10.13;7.00;;;19.70;61.50;;;;;;5056583;28;20037;-71
2023/04/22 09:01:08;;;;;;;9.55;6.85;;;19.80;61.30;;;;;;5056124;28;20033;-71
2023/04/22 09:03:40;;;;;;;9.82;6.60;;;19.90;61.30;;;;;;5043147;28;20030;-71
2023/04/22 09:06:09;;;;;;;9.52;6.72;;;19.90;61.00;;;;;;5044476;28;20408;-71
2023/04/22 09:08:35;;;;;;;9.55;6.43;;;20.00;61.10;;;;;;5055941;28;20021;-71
2023/04/22 09:11:02;;;;;;;9.45;6.47;;;20.10;61.00;;;;;;5057190;28;20334;-71
2023/04/22 09:13:28;;;;;;;9.00;5.93;;;20.30;60.90;;;;;;5046680;28;20104;-71
2023/04/22 09:15:54;;;;;;;8.70;6.07;;;20.50;60.50;;;;;;5049182;28;20063;-70
2023/04/22 09:18:20;;;;;;;8.68;5.93;;;20.60;60.20;;;;;;5056865;28;20036;-71
2023/04/22 09:20:47;;;;;;;10.10;6.10;;;20.50;60.10;;;;;;5053385;28;20033;-71
2023/04/22 09:23:13;;;;;;;9.13;5.80;;;20.50;60.10;;;;;;5041396;28;20380;-71
2023/04/22 09:25:40;;;;;;;9.23;5.50;;;20.50;60.00;;;;;;5037254;28;20029;-71
2023/04/22 09:28:11;;;;;;;9.13;5.65;;;20.60;59.90;;;;;;5056805;28;20236;-71
2023/04/22 09:30:36;;;;;;;10.43;6.07;;;20.70;60.30;;;;;;5055595;28;20029;-71
2023/04/22 09:33:06;;;;;;;8.68;5.55;;;20.90;59.50;;;;;;5051487;28;20366;-71
2023/04/22 09:35:33;;;;;;;9.10;5.47;;;21.00;59.10;;;;;;5045670;28;20342;-71
2023/04/22 09:38:00;;;;;;;8.52;5.45;;;21.00;58.90;;;;;;5042282;28;20029;-72
2023/04/22 09:40:27;;;;;;;8.20;5.40;;;21.10;58.80;;;;;;5038502;28;20126;-72
2023/04/22 09:42:55;;;;;;;9.02;5.30;;;21.10;58.70;;;;;;5055747;28;20048;-71
2023/04/22 09:45:35;;;;;;;9.32;5.13;;;21.10;58.60;;;;;;5047069;28;20028;-71
2023/04/22 09:48:08;;;;;;;8.57;6.03;;;21.30;58.50;;;;;;5055246;28;20053;-71
2023/04/22 09:50:35;;;;;;;7.55;5.00;;;21.40;58.10;;;;;;5055383;28;20025;-70
2023/04/22 09:53:04;;;;;;;8.90;6.30;;;21.40;58.00;;;;;;5056415;28;20170;-70
2023/04/22 09:55:33;;;;;;;9.82;5.50;;;21.40;57.80;;;;;;5024521;28;20029;-71
2023/04/22 09:58:07;;;;;;;9.07;5.15;;;21.40;57.60;;;;;;5055046;28;20040;-71
2023/04/22 10:00:38;;;;;;;8.90;5.57;;;21.50;57.20;;;;;;5055643;28;20040;-71
2023/04/22 10:03:05;;;;;;;8.98;6.13;;;21.50;57.10;;;;;;5054948;28;20048;-70
2023/04/22 10:05:36;;;;;;;8.82;5.53;;;21.50;57.10;;;;;;5046676;28;20367;-71
2023/04/22 10:08:04;;;;;;;8.63;5.35;;;21.40;57.10;;;;;;5020776;28;20029;-71
2023/04/22 10:10:30;;;;;;;8.25;5.13;;;21.30;57.30;;;;;;5044226;28;20468;-72
2023/04/22 10:12:56;;;;;;;9.30;5.35;;;21.30;57.00;;;;;;5055397;28;20327;-70
2023/04/22 10:15:23;;;;;;;10.38;5.57;;;21.20;57.10;;;;;;5026644;28;20026;-70
2023/04/22 10:17:51;;;;;;;11.50;6.00;;;21.10;57.10;;;;;;5036503;28;20410;-69
2023/04/22 10:20:19;;;;;;;9.82;5.60;;;21.00;57.10;;;;;;5042130;28;20477;-69
2023/04/22 10:22:44;;;;;;;8.75;5.65;;;20.90;57.20;;;;;;5054303;28;20059;-69
2023/04/22 10:25:24;;;;;;;8.27;5.00;;;20.90;57.20;;;;;;5053493;28;20032;-69
2023/04/22 10:28:02;;;;;;;8.95;5.40;;;21.00;57.20;;;;;;5053721;28;20029;-69
2023/04/22 10:30:30;;;;;;;9.48;5.68;;;21.10;57.20;;;;;;5055731;28;20021;-69
2023/04/22 10:33:16;;;;;;;8.40;5.13;;;21.20;57.00;;;;;;5055223;28;20079;-69
2023/04/22 10:36:13;;;;;;;7.13;4.53;;;21.30;56.70;;;;;;5054810;28;20103;-69
2023/04/22 10:38:54;;;;;;;8.32;4.80;;;21.50;56.00;;;;;;5041613;28;20037;-69
2023/04/22 10:41:24;;;;;;;8.50;5.15;;;21.60;55.90;;;;;;5051513;28;20033;-69
2023/04/22 10:43:59;;;;;;;7.35;4.43;;;21.70;55.70;;;;;;5036550;28;20455;-71
2023/04/22 10:46:38;;;;;;;8.00;4.38;;;21.80;55.40;;;;;;5044971;28;20041;-71
2023/04/22 10:49:24;;;;;;;7.32;4.50;;;21.90;55.10;;;;;;5037565;28;20037;-71
2023/04/22 10:51:57;;;;;;;7.18;4.40;;;21.90;54.90;;;;;;5037091;28;20062;-71
2023/04/22 10:54:30;;;;;;;8.32;4.93;;;21.90;55.20;;;;;;5035639;28;20065;-71
2023/04/22 10:57:10;;;;;;;9.20;5.45;;;22.00;55.00;;;;;;5042518;28;20043;-71
2023/04/22 10:59:47;;;;;;;8.50;5.05;;;22.10;54.90;;;;;;5042908;28;20076;-68
2023/04/22 11:02:14;;;;;;;7.20;4.78;;;22.20;54.90;;;;;;5045154;28;20118;-69
2023/04/22 11:04:41;;;;;;;8.13;5.13;;;22.10;55.10;;;;;;5043178;28;20072;-69
2023/04/22 11:07:25;;;;;;;8.90;5.28;;;22.10;55.20;;;;;;5040390;28;20458;-69
2023/04/22 11:10:06;;;;;;;8.10;5.28;;;21.90;55.40;;;;;;5043190;28;20493;-69
2023/04/22 11:12:38;;;;;;;7.78;4.78;;;21.90;55.60;;;;;;5029234;28;20025;-69
2023/04/22 11:15:14;;;;;;;8.70;5.65;;;22.10;55.50;;;;;;5047774;28;20055;-70
2023/04/22 11:17:45;;;;;;;8.68;5.05;;;21.90;55.50;;;;;;5048397;28;20044;-70
2023/04/22 11:20:16;;;;;;;8.15;5.00;;;21.70;55.80;;;;;;5035307;28;20042;-71
2023/04/22 11:22:45;;;;;;;7.95;5.22;;;21.40;56.10;;;;;;5052746;28;20063;-70
2023/04/22 11:25:11;;;;;;;9.13;5.07;;;21.20;56.70;;;;;;5039171;28;20032;-70
2023/04/22 11:27:39;;;;;;;8.50;5.43;;;21.00;57.00;;;;;;5040754;28;20168;-71
2023/04/22 11:30:07;;;;;;;8.65;5.05;;;20.80;57.10;;;;;;5043478;28;20032;-70
2023/04/22 11:32:35;;;;;;;8.10;5.10;;;20.60;57.20;;;;;;5051309;28;20406;-70
2023/04/22 11:35:11;;;;;;;8.57;5.22;;;20.40;57.30;;;;;;5053247;28;20307;-70
2023/04/22 11:37:46;;;;;;;9.63;5.90;;;20.30;57.40;;;;;;5053632;28;20029;-70
2023/04/22 11:40:17;;;;;;;10.70;6.13;;;20.20;57.60;;;;;;5054623;28;20033;-70
2023/04/22 11:42:43;;;;;;;8.80;5.18;;;20.10;57.70;;;;;;5053412;28;20029;-70
2023/04/22 11:45:11;;;;;;;10.70;5.68;;;20.10;57.90;;;;;;5038159;28;20025;-70
2023/04/22 11:47:37;;;;;;;8.30;4.85;;;20.00;57.90;;;;;;5036701;28;20029;-70
2023/04/22 11:50:08;;;;;;;9.00;5.50;;;19.90;58.00;;;;;;5038961;28;20026;-70
2023/04/22 11:52:54;;;;;;;9.13;5.15;;;19.90;58.10;;;;;;5033223;28;20037;-72
2023/04/22 11:55:29;;;;;;;8.55;5.50;;;19.90;58.10;;;;;;5029685;28;20343;-72
2023/04/22 11:58:00;;;;;;;8.43;5.28;;;19.90;58.00;;;;;;5030806;28;20036;-72
2023/04/22 12:00:31;;;;;;;9.57;5.95;;;19.90;58.10;;;;;;5030541;28;20033;-71
2023/04/22 12:03:00;;;;;;;8.95;5.20;;;19.90;58.10;;;;;;5033084;28;20034;-69
2023/04/22 12:05:37;;;;;;;7.78;4.95;;;19.80;58.20;;;;;;5016033;28;20033;-69
2023/04/22 12:08:07;;;;;;;9.93;6.10;;;19.80;58.30;;;;;;5021470;28;20049;-70
2023/04/22 12:10:33;;;;;;;10.55;6.03;;;19.70;58.50;;;;;;5029262;28;20030;-70
2023/04/22 12:13:00;;;;;;;9.43;5.82;;;19.60;58.70;;;;;;5011409;28;20033;-70
2023/04/22 12:15:26;;;;;;;10.57;6.15;;;19.50;58.80;;;;;;5029258;28;20124;-70
2023/04/22 12:17:53;;;;;;;9.00;5.68;;;19.40;59.00;;;;;;5034217;28;20053;-69
2023/04/22 12:20:19;;;;;;;9.20;5.57;;;19.30;59.20;;;;;;5026506;28;20407;-69
2023/04/22 12:22:45;;;;;;;8.32;5.50;;;19.30;59.60;;;;;;5021711;28;20359;-69
2023/04/22 12:25:17;;;;;;;8.18;5.45;;;19.30;60.30;;;;;;5031541;28;20021;-70
2023/04/22 12:27:43;;;;;;;8.48;5.55;;;19.20;60.60;;;;;;5036081;28;20036;-70
2023/04/22 12:30:09;;;;;;;9.50;6.20;;;19.20;60.80;;;;;;5035686;28;20418;-69
2023/04/22 12:32:35;;;;;;;9.35;6.22;;;19.10;61.10;;;;;;5032302;28;20029;-69
2023/04/22 12:35:01;;;;;;;8.95;6.35;;;19.10;61.50;;;;;;5031340;28;20029;-70
2023/04/22 12:37:26;;;;;;;8.65;5.47;;;19.00;61.80;;;;;;5037171;28;20362;-69
2023/04/22 12:39:52;;;;;;;10.57;6.45;;;19.00;62.30;;;;;;5053164;28;20058;-69
2023/04/22 12:42:18;;;;;;;10.50;6.20;;;19.00;62.60;;;;;;5034966;28;20426;-69
2023/04/22 12:44:45;;;;;;;9.52;5.75;;;19.00;62.70;;;;;;5035028;28;20422;-69